sensor_id;sensor_type;location;lat;lon;timestamp;P1;durP1;ratioP1;P2;durP2;ratioP2
20124;SDS011;10223;50.862;4.360;2023-09-18T00:02:01;6.82;;;4.95;;
20124;SDS011;10223;50.862;4.360;2023-09-18T00:04:28;9.50;;;5.10;;
20124;SDS011;10223;50.862;4.360;2023-09-18T00:06:55;7.82;;;4.80;;
20124;SDS011;10223;50.862;4.360;2023-09-18T00:09:22;10.63;;;4.63;;
20124;SDS011;10223;50.862;4.360;2023-09-18T00:11:50;8.40;;;4.70;;
20124;SDS011;10223;50.862;4.360;2023-09-18T00:14:17;9.73;;;4.95;;
20124;SDS011;10223;50.862;4.360;2023-09-18T00:16:44;9.85;;;4.57;;
20124;SDS011;10223;50.862;4.360;2023-09-18T00:19:11;12.18;;;5.47;;
20124;SDS011;10223;50.862;4.360;2023-09-18T00:21:38;6.07;;;4.40;;
20124;SDS011;10223;50.862;4.360;2023-09-18T00:24:05;8.05;;;5.07;;
20124;SDS011;10223;50.862;4.360;2023-09-18T00:26:33;9.25;;;5.55;;
20124;SDS011;10223;50.862;4.360;2023-09-18T00:29:01;9.93;;;4.85;;
20124;SDS011;10223;50.862;4.360;2023-09-18T00:31:28;9.05;;;5.20;;
20124;SDS011;10223;50.862;4.360;2023-09-18T00:33:55;8.43;;;4.90;;
20124;SDS011;10223;50.862;4.360;2023-09-18T00:36:22;10.43;;;5.00;;
20124;SDS011;10223;50.862;4.360;2023-09-18T00:38:48;12.13;;;5.07;;
20124;SDS011;10223;50.862;4.360;2023-09-18T00:41:15;8.90;;;5.22;;
20124;SDS011;10223;50.862;4.360;2023-09-18T00:43:42;10.27;;;5.85;;
20124;SDS011;10223;50.862;4.360;2023-09-18T00:46:10;7.43;;;5.32;;
20124;SDS011;10223;50.862;4.360;2023-09-18T00:48:37;12.35;;;5.60;;
20124;SDS011;10223;50.862;4.360;2023-09-18T00:51:04;12.25;;;5.85;;
20124;SDS011;10223;50.862;4.360;2023-09-18T00:53:32;10.35;;;6.10;;
20124;SDS011;10223;50.862;4.360;2023-09-18T00:55:59;10.20;;;5.32;;
20124;SDS011;10223;50.862;4.360;2023-09-18T00:58:27;13.32;;;5.63;;
20124;SDS011;10223;50.862;4.360;2023-09-18T01:00:54;9.32;;;5.72;;
20124;SDS011;10223;50.862;4.360;2023-09-18T01:03:23;9.95;;;5.40;;
20124;SDS011;10223;50.862;4.360;2023-09-18T01:05:50;11.32;;;5.95;;
20124;SDS011;10223;50.862;4.360;2023-09-18T01:08:17;13.60;;;6.38;;
20124;SDS011;10223;50.862;4.360;2023-09-18T01:10:46;15.57;;;7.50;;
20124;SDS011;10223;50.862;4.360;2023-09-18T01:13:18;10.00;;;6.18;;
20124;SDS011;10223;50.862;4.360;2023-09-18T01:15:52;10.68;;;6.50;;
20124;SDS011;10223;50.862;4.360;2023-09-18T01:18:25;9.90;;;6.78;;
20124;SDS011;10223;50.862;4.360;2023-09-18T01:20:52;12.25;;;6.47;;
20124;SDS011;10223;50.862;4.360;2023-09-18T01:23:20;14.20;;;6.35;;
20124;SDS011;10223;50.862;4.360;2023-09-18T01:25:46;11.05;;;6.22;;
20124;SDS011;10223;50.862;4.360;2023-09-18T01:28:13;7.55;;;5.72;;
20124;SDS011;10223;50.862;4.360;2023-09-18T01:30:41;11.23;;;6.50;;
20124;SDS011;10223;50.862;4.360;2023-09-18T01:33:08;9.15;;;5.68;;
20124;SDS011;10223;50.862;4.360;2023-09-18T01:35:36;11.00;;;5.55;;
20124;SDS011;10223;50.862;4.360;2023-09-18T01:38:04;6.35;;;5.03;;
20124;SDS011;10223;50.862;4.360;2023-09-18T01:40:32;13.30;;;6.18;;
20124;SDS011;10223;50.862;4.360;2023-09-18T01:43:00;6.68;;;4.63;;
20124;SDS011;10223;50.862;4.360;2023-09-18T01:45:26;11.70;;;5.00;;
20124;SDS011;10223;50.862;4.360;2023-09-18T01:47:54;13.10;;;5.65;;
20124;SDS011;10223;50.862;4.360;2023-09-18T01:50:21;9.85;;;5.30;;
20124;SDS011;10223;50.862;4.360;2023-09-18T01:52:49;11.38;;;4.80;;
20124;SDS011;10223;50.862;4.360;2023-09-18T01:55:16;9.35;;;4.88;;
20124;SDS011;10223;50.862;4.360;2023-09-18T01:57:44;9.20;;;5.53;;
20124;SDS011;10223;50.862;4.360;2023-09-18T02:00:11;6.90;;;3.75;;
20124;SDS011;10223;50.862;4.360;2023-09-18T02:02:39;10.95;;;5.57;;
20124;SDS011;10223;50.862;4.360;2023-09-18T02:05:06;10.23;;;5.32;;
20124;SDS011;10223;50.862;4.360;2023-09-18T02:07:33;9.57;;;4.95;;
20124;SDS011;10223;50.862;4.360;2023-09-18T02:10:00;9.98;;;5.00;;
20124;SDS011;10223;50.862;4.360;2023-09-18T02:12:28;6.93;;;4.85;;
20124;SDS011;10223;50.862;4.360;2023-09-18T02:14:56;9.65;;;5.60;;
20124;SDS011;10223;50.862;4.360;2023-09-18T02:17:31;7.85;;;4.88;;
20124;SDS011;10223;50.862;4.360;2023-09-18T02:19:57;11.80;;;5.53;;
20124;SDS011;10223;50.862;4.360;2023-09-18T02:22:26;9.07;;;5.30;;
20124;SDS011;10223;50.862;4.360;2023-09-18T02:24:52;11.25;;;5.38;;
20124;SDS011;10223;50.862;4.360;2023-09-18T02:27:19;7.72;;;5.13;;
20124;SDS011;10223;50.862;4.360;2023-09-18T02:29:46;11.43;;;5.25;;
20124;SDS011;10223;50.862;4.360;2023-09-18T02:32:16;9.60;;;5.13;;
20124;SDS011;10223;50.862;4.360;2023-09-18T02:34:44;11.30;;;5.57;;
20124;SDS011;10223;50.862;4.360;2023-09-18T02:37:11;8.15;;;4.97;;
20124;SDS011;10223;50.862;4.360;2023-09-18T02:39:37;9.77;;;4.68;;
20124;SDS011;10223;50.862;4.360;2023-09-18T02:42:04;7.43;;;3.88;;
20124;SDS011;10223;50.862;4.360;2023-09-18T02:44:31;10.73;;;4.32;;
20124;SDS011;10223;50.862;4.360;2023-09-18T02:46:59;6.53;;;4.07;;
20124;SDS011;10223;50.862;4.360;2023-09-18T02:49:27;6.43;;;4.07;;
20124;SDS011;10223;50.862;4.360;2023-09-18T02:51:54;7.63;;;3.58;;
20124;SDS011;10223;50.862;4.360;2023-09-18T02:54:21;7.10;;;3.45;;
20124;SDS011;10223;50.862;4.360;2023-09-18T02:56:48;7.05;;;3.20;;
20124;SDS011;10223;50.862;4.360;2023-09-18T02:59:15;8.40;;;3.00;;
20124;SDS011;10223;50.862;4.360;2023-09-18T03:01:41;6.30;;;2.60;;
20124;SDS011;10223;50.862;4.360;2023-09-18T03:04:08;6.45;;;2.20;;
20124;SDS011;10223;50.862;4.360;2023-09-18T03:06:39;3.95;;;2.00;;
20124;SDS011;10223;50.862;4.360;2023-09-18T03:09:06;5.82;;;2.10;;
20124;SDS011;10223;50.862;4.360;2023-09-18T03:11:33;3.83;;;2.00;;
20124;SDS011;10223;50.862;4.360;2023-09-18T03:13:59;8.32;;;2.25;;
20124;SDS011;10223;50.862;4.360;2023-09-18T03:16:26;4.22;;;2.15;;
20124;SDS011;10223;50.862;4.360;2023-09-18T03:18:53;3.05;;;1.80;;
20124;SDS011;10223;50.862;4.360;2023-09-18T03:21:20;3.78;;;1.58;;
20124;SDS011;10223;50.862;4.360;2023-09-18T03:23:48;3.78;;;1.50;;
20124;SDS011;10223;50.862;4.360;2023-09-18T03:26:15;2.25;;;1.25;;
20124;SDS011;10223;50.862;4.360;2023-09-18T03:28:42;6.25;;;1.63;;
20124;SDS011;10223;50.862;4.360;2023-09-18T03:31:08;5.00;;;1.55;;
20124;SDS011;10223;50.862;4.360;2023-09-18T03:33:35;1.58;;;1.30;;
20124;SDS011;10223;50.862;4.360;2023-09-18T03:36:02;2.08;;;1.45;;
20124;SDS011;10223;50.862;4.360;2023-09-18T03:38:29;3.17;;;1.30;;
20124;SDS011;10223;50.862;4.360;2023-09-18T03:41:00;3.60;;;1.10;;
20124;SDS011;10223;50.862;4.360;2023-09-18T03:43:27;5.70;;;1.75;;
20124;SDS011;10223;50.862;4.360;2023-09-18T03:45:53;6.85;;;2.10;;
20124;SDS011;10223;50.862;4.360;2023-09-18T03:48:20;4.63;;;2.15;;
20124;SDS011;10223;50.862;4.360;2023-09-18T03:50:47;6.25;;;2.65;;
20124;SDS011;10223;50.862;4.360;2023-09-18T03:53:14;7.95;;;2.60;;
20124;SDS011;10223;50.862;4.360;2023-09-18T03:55:41;11.02;;;3.00;;
20124;SDS011;10223;50.862;4.360;2023-09-18T03:58:09;8.20;;;3.20;;
20124;SDS011;10223;50.862;4.360;2023-09-18T04:00:36;5.28;;;2.80;;
20124;SDS011;10223;50.862;4.360;2023-09-18T04:03:03;7.55;;;2.78;;
20124;SDS011;10223;50.862;4.360;2023-09-18T04:05:30;7.22;;;2.72;;
20124;SDS011;10223;50.862;4.360;2023-09-18T04:07:57;5.00;;;2.35;;
20124;SDS011;10223;50.862;4.360;2023-09-18T04:10:24;10.10;;;3.10;;
20124;SDS011;10223;50.862;4.360;2023-09-18T04:12:52;8.23;;;2.90;;
20124;SDS011;10223;50.862;4.360;2023-09-18T04:15:20;6.45;;;2.85;;
20124;SDS011;10223;50.862;4.360;2023-09-18T04:17:48;8.38;;;2.67;;
20124;SDS011;10223;50.862;4.360;2023-09-18T04:20:15;4.88;;;2.35;;
20124;SDS011;10223;50.862;4.360;2023-09-18T04:22:42;10.70;;;3.13;;
20124;SDS011;10223;50.862;4.360;2023-09-18T04:25:10;6.65;;;2.50;;
20124;SDS011;10223;50.862;4.360;2023-09-18T04:27:37;10.13;;;2.40;;
20124;SDS011;10223;50.862;4.360;2023-09-18T04:30:04;6.82;;;2.47;;
20124;SDS011;10223;50.862;4.360;2023-09-18T04:32:35;6.75;;;2.30;;
20124;SDS011;10223;50.862;4.360;2023-09-18T04:35:02;2.72;;;1.75;;
20124;SDS011;10223;50.862;4.360;2023-09-18T04:37:30;4.47;;;1.77;;
20124;SDS011;10223;50.862;4.360;2023-09-18T04:39:57;5.07;;;1.77;;
20124;SDS011;10223;50.862;4.360;2023-09-18T04:42:24;5.50;;;1.50;;
20124;SDS011;10223;50.862;4.360;2023-09-18T04:44:51;5.43;;;1.58;;
20124;SDS011;10223;50.862;4.360;2023-09-18T04:47:18;5.10;;;1.50;;
20124;SDS011;10223;50.862;4.360;2023-09-18T04:49:46;3.15;;;1.30;;
20124;SDS011;10223;50.862;4.360;2023-09-18T04:52:14;5.63;;;1.15;;
20124;SDS011;10223;50.862;4.360;2023-09-18T04:54:41;3.67;;;1.35;;
20124;SDS011;10223;50.862;4.360;2023-09-18T04:57:07;3.25;;;1.27;;
20124;SDS011;10223;50.862;4.360;2023-09-18T04:59:34;2.97;;;1.38;;
20124;SDS011;10223;50.862;4.360;2023-09-18T05:02:01;3.90;;;1.80;;
20124;SDS011;10223;50.862;4.360;2023-09-18T05:04:29;5.65;;;1.30;;
20124;SDS011;10223;50.862;4.360;2023-09-18T05:06:58;3.03;;;1.10;;
20124;SDS011;10223;50.862;4.360;2023-09-18T05:09:27;4.30;;;1.38;;
20124;SDS011;10223;50.862;4.360;2023-09-18T05:11:54;4.95;;;1.55;;
20124;SDS011;10223;50.862;4.360;2023-09-18T05:14:20;5.40;;;1.60;;
20124;SDS011;10223;50.862;4.360;2023-09-18T05:16:47;4.35;;;1.50;;
20124;SDS011;10223;50.862;4.360;2023-09-18T05:19:14;6.45;;;1.58;;
20124;SDS011;10223;50.862;4.360;2023-09-18T05:21:41;3.35;;;1.40;;
20124;SDS011;10223;50.862;4.360;2023-09-18T05:24:10;6.40;;;1.73;;
20124;SDS011;10223;50.862;4.360;2023-09-18T05:26:36;4.63;;;1.42;;
20124;SDS011;10223;50.862;4.360;2023-09-18T05:29:03;7.50;;;1.50;;
20124;SDS011;10223;50.862;4.360;2023-09-18T05:31:30;4.28;;;1.35;;
20124;SDS011;10223;50.862;4.360;2023-09-18T05:33:57;7.22;;;1.77;;
20124;SDS011;10223;50.862;4.360;2023-09-18T05:36:24;6.22;;;1.80;;
20124;SDS011;10223;50.862;4.360;2023-09-18T05:38:51;5.28;;;1.60;;
20124;SDS011;10223;50.862;4.360;2023-09-18T05:41:20;4.05;;;1.40;;
20124;SDS011;10223;50.862;4.360;2023-09-18T05:43:50;13.77;;;2.03;;
20124;SDS011;10223;50.862;4.360;2023-09-18T05:46:17;8.73;;;1.77;;
20124;SDS011;10223;50.862;4.360;2023-09-18T05:48:44;58.40;;;5.35;;
20124;SDS011;10223;50.862;4.360;2023-09-18T05:51:11;20.70;;;2.10;;
20124;SDS011;10223;50.862;4.360;2023-09-18T05:53:38;17.95;;;2.97;;
20124;SDS011;10223;50.862;4.360;2023-09-18T05:56:05;9.50;;;1.83;;
20124;SDS011;10223;50.862;4.360;2023-09-18T05:58:33;7.25;;;1.65;;
20124;SDS011;10223;50.862;4.360;2023-09-18T06:01:01;12.75;;;2.08;;
20124;SDS011;10223;50.862;4.360;2023-09-18T06:03:28;8.35;;;2.38;;
20124;SDS011;10223;50.862;4.360;2023-09-18T06:05:55;6.55;;;2.42;;
20124;SDS011;10223;50.862;4.360;2023-09-18T06:08:22;5.40;;;1.98;;
20124;SDS011;10223;50.862;4.360;2023-09-18T06:10:51;4.40;;;1.80;;
20124;SDS011;10223;50.862;4.360;2023-09-18T06:13:19;6.13;;;1.83;;
20124;SDS011;10223;50.862;4.360;2023-09-18T06:15:47;8.27;;;2.20;;
20124;SDS011;10223;50.862;4.360;2023-09-18T06:18:15;5.32;;;2.00;;
20124;SDS011;10223;50.862;4.360;2023-09-18T06:20:42;13.35;;;2.28;;
20124;SDS011;10223;50.862;4.360;2023-09-18T06:23:10;6.60;;;2.13;;
20124;SDS011;10223;50.862;4.360;2023-09-18T06:25:36;6.03;;;1.90;;
20124;SDS011;10223;50.862;4.360;2023-09-18T06:28:03;6.32;;;1.88;;
20124;SDS011;10223;50.862;4.360;2023-09-18T06:30:30;8.13;;;2.42;;
20124;SDS011;10223;50.862;4.360;2023-09-18T06:32:59;31.10;;;4.38;;
20124;SDS011;10223;50.862;4.360;2023-09-18T06:35:26;16.23;;;2.40;;
20124;SDS011;10223;50.862;4.360;2023-09-18T06:37:53;14.48;;;2.60;;
20124;SDS011;10223;50.862;4.360;2023-09-18T06:40:23;12.40;;;2.55;;
20124;SDS011;10223;50.862;4.360;2023-09-18T06:42:50;7.10;;;2.80;;
20124;SDS011;10223;50.862;4.360;2023-09-18T06:45:17;8.30;;;2.40;;
20124;SDS011;10223;50.862;4.360;2023-09-18T06:47:44;8.00;;;2.20;;
20124;SDS011;10223;50.862;4.360;2023-09-18T06:50:13;4.30;;;2.22;;
20124;SDS011;10223;50.862;4.360;2023-09-18T06:52:40;8.65;;;2.53;;
20124;SDS011;10223;50.862;4.360;2023-09-18T06:55:07;8.52;;;2.22;;
20124;SDS011;10223;50.862;4.360;2023-09-18T06:57:34;8.63;;;2.88;;
20124;SDS011;10223;50.862;4.360;2023-09-18T07:00:01;7.72;;;2.92;;
20124;SDS011;10223;50.862;4.360;2023-09-18T07:02:29;11.35;;;2.72;;
20124;SDS011;10223;50.862;4.360;2023-09-18T07:04:56;8.98;;;3.15;;
20124;SDS011;10223;50.862;4.360;2023-09-18T07:07:24;11.10;;;2.80;;
20124;SDS011;10223;50.862;4.360;2023-09-18T07:09:51;8.13;;;2.85;;
20124;SDS011;10223;50.862;4.360;2023-09-18T07:12:18;7.75;;;2.35;;
20124;SDS011;10223;50.862;4.360;2023-09-18T07:14:48;7.88;;;2.80;;
20124;SDS011;10223;50.862;4.360;2023-09-18T07:17:17;7.80;;;2.72;;
20124;SDS011;10223;50.862;4.360;2023-09-18T07:19:44;9.52;;;2.92;;
20124;SDS011;10223;50.862;4.360;2023-09-18T07:22:11;7.90;;;2.70;;
20124;SDS011;10223;50.862;4.360;2023-09-18T07:24:39;8.93;;;3.03;;
20124;SDS011;10223;50.862;4.360;2023-09-18T07:27:07;9.20;;;3.22;;
20124;SDS011;10223;50.862;4.360;2023-09-18T07:29:34;6.60;;;2.58;;
20124;SDS011;10223;50.862;4.360;2023-09-18T07:32:01;7.38;;;2.55;;
20124;SDS011;10223;50.862;4.360;2023-09-18T07:34:28;8.07;;;2.72;;
20124;SDS011;10223;50.862;4.360;2023-09-18T07:36:55;6.80;;;2.50;;
20124;SDS011;10223;50.862;4.360;2023-09-18T07:39:22;5.80;;;2.30;;
20124;SDS011;10223;50.862;4.360;2023-09-18T07:41:50;5.78;;;2.47;;
20124;SDS011;10223;50.862;4.360;2023-09-18T07:44:18;8.25;;;3.08;;
20124;SDS011;10223;50.862;4.360;2023-09-18T07:46:45;5.15;;;2.08;;
20124;SDS011;10223;50.862;4.360;2023-09-18T07:49:12;20.10;;;3.25;;
20124;SDS011;10223;50.862;4.360;2023-09-18T07:51:39;8.48;;;2.20;;
20124;SDS011;10223;50.862;4.360;2023-09-18T07:54:06;8.85;;;2.30;;
20124;SDS011;10223;50.862;4.360;2023-09-18T07:56:33;12.05;;;2.83;;
20124;SDS011;10223;50.862;4.360;2023-09-18T07:59:02;8.95;;;2.60;;
20124;SDS011;10223;50.862;4.360;2023-09-18T08:01:30;10.07;;;2.92;;
20124;SDS011;10223;50.862;4.360;2023-09-18T08:03:57;6.85;;;2.42;;
20124;SDS011;10223;50.862;4.360;2023-09-18T08:06:25;10.55;;;2.90;;
20124;SDS011;10223;50.862;4.360;2023-09-18T08:08:53;14.15;;;3.05;;
20124;SDS011;10223;50.862;4.360;2023-09-18T08:11:20;14.98;;;3.00;;
20124;SDS011;10223;50.862;4.360;2023-09-18T08:13:47;19.42;;;3.88;;
20124;SDS011;10223;50.862;4.360;2023-09-18T08:16:15;14.93;;;3.28;;
20124;SDS011;10223;50.862;4.360;2023-09-18T08:18:43;10.80;;;3.13;;
20124;SDS011;10223;50.862;4.360;2023-09-18T08:21:10;8.57;;;3.42;;
20124;SDS011;10223;50.862;4.360;2023-09-18T08:23:38;7.15;;;3.35;;
20124;SDS011;10223;50.862;4.360;2023-09-18T08:26:05;5.82;;;3.55;;
20124;SDS011;10223;50.862;4.360;2023-09-18T08:28:32;18.50;;;4.40;;
20124;SDS011;10223;50.862;4.360;2023-09-18T08:31:01;16.45;;;4.63;;
20124;SDS011;10223;50.862;4.360;2023-09-18T08:33:29;25.92;;;5.10;;
20124;SDS011;10223;50.862;4.360;2023-09-18T08:35:56;17.98;;;5.30;;
20124;SDS011;10223;50.862;4.360;2023-09-18T08:38:23;9.82;;;4.28;;
20124;SDS011;10223;50.862;4.360;2023-09-18T08:40:50;9.52;;;4.70;;
20124;SDS011;10223;50.862;4.360;2023-09-18T08:43:19;13.82;;;5.13;;
20124;SDS011;10223;50.862;4.360;2023-09-18T08:45:49;9.63;;;5.13;;
20124;SDS011;10223;50.862;4.360;2023-09-18T08:48:18;10.85;;;5.05;;
20124;SDS011;10223;50.862;4.360;2023-09-18T08:50:47;10.65;;;5.25;;
20124;SDS011;10223;50.862;4.360;2023-09-18T08:53:14;11.30;;;4.40;;
20124;SDS011;10223;50.862;4.360;2023-09-18T08:55:41;11.10;;;4.50;;
20124;SDS011;10223;50.862;4.360;2023-09-18T08:58:08;7.38;;;3.53;;
20124;SDS011;10223;50.862;4.360;2023-09-18T09:00:36;8.05;;;4.05;;
20124;SDS011;10223;50.862;4.360;2023-09-18T09:03:03;20.42;;;5.28;;
20124;SDS011;10223;50.862;4.360;2023-09-18T09:05:31;7.88;;;3.38;;
20124;SDS011;10223;50.862;4.360;2023-09-18T09:07:59;7.63;;;3.42;;
20124;SDS011;10223;50.862;4.360;2023-09-18T09:10:26;13.82;;;4.45;;
20124;SDS011;10223;50.862;4.360;2023-09-18T09:12:54;13.00;;;3.85;;
20124;SDS011;10223;50.862;4.360;2023-09-18T09:15:22;8.73;;;3.10;;
20124;SDS011;10223;50.862;4.360;2023-09-18T09:17:51;9.68;;;4.22;;
20124;SDS011;10223;50.862;4.360;2023-09-18T09:20:20;11.98;;;3.25;;
20124;SDS011;10223;50.862;4.360;2023-09-18T09:22:47;10.15;;;3.22;;
20124;SDS011;10223;50.862;4.360;2023-09-18T09:25:22;10.07;;;3.38;;
20124;SDS011;10223;50.862;4.360;2023-09-18T09:27:51;8.23;;;3.33;;
20124;SDS011;10223;50.862;4.360;2023-09-18T09:30:18;14.82;;;4.53;;
20124;SDS011;10223;50.862;4.360;2023-09-18T09:32:47;15.02;;;3.53;;
20124;SDS011;10223;50.862;4.360;2023-09-18T09:35:19;12.48;;;3.92;;
20124;SDS011;10223;50.862;4.360;2023-09-18T09:37:52;9.20;;;4.00;;
20124;SDS011;10223;50.862;4.360;2023-09-18T09:40:21;13.40;;;3.78;;
20124;SDS011;10223;50.862;4.360;2023-09-18T09:42:50;15.38;;;4.45;;
20124;SDS011;10223;50.862;4.360;2023-09-18T09:45:19;16.63;;;4.65;;
20124;SDS011;10223;50.862;4.360;2023-09-18T09:47:46;16.60;;;4.18;;
20124;SDS011;10223;50.862;4.360;2023-09-18T09:50:14;8.75;;;3.90;;
20124;SDS011;10223;50.862;4.360;2023-09-18T09:52:44;9.07;;;4.65;;
20124;SDS011;10223;50.862;4.360;2023-09-18T09:55:21;8.25;;;3.58;;
20124;SDS011;10223;50.862;4.360;2023-09-18T09:57:51;12.98;;;3.80;;
20124;SDS011;10223;50.862;4.360;2023-09-18T10:00:22;11.13;;;4.43;;
20124;SDS011;10223;50.862;4.360;2023-09-18T10:02:56;11.73;;;4.75;;
20124;SDS011;10223;50.862;4.360;2023-09-18T10:05:25;13.30;;;4.45;;
20124;SDS011;10223;50.862;4.360;2023-09-18T10:07:55;17.17;;;4.40;;
20124;SDS011;10223;50.862;4.360;2023-09-18T10:10:27;16.10;;;4.05;;
20124;SDS011;10223;50.862;4.360;2023-09-18T10:12:57;12.52;;;4.20;;
20124;SDS011;10223;50.862;4.360;2023-09-18T10:15:28;11.50;;;4.50;;
20124;SDS011;10223;50.862;4.360;2023-09-18T10:17:58;6.28;;;3.28;;
20124;SDS011;10223;50.862;4.360;2023-09-18T10:20:28;8.38;;;3.75;;
20124;SDS011;10223;50.862;4.360;2023-09-18T10:22:56;12.48;;;4.45;;
20124;SDS011;10223;50.862;4.360;2023-09-18T10:25:27;6.35;;;4.10;;
20124;SDS011;10223;50.862;4.360;2023-09-18T10:27:58;9.68;;;3.72;;
20124;SDS011;10223;50.862;4.360;2023-09-18T10:30:27;14.40;;;4.20;;
20124;SDS011;10223;50.862;4.360;2023-09-18T10:32:59;7.03;;;3.75;;
20124;SDS011;10223;50.862;4.360;2023-09-18T10:35:26;7.35;;;3.65;;
20124;SDS011;10223;50.862;4.360;2023-09-18T10:37:54;10.60;;;3.72;;
20124;SDS011;10223;50.862;4.360;2023-09-18T10:40:21;11.73;;;3.97;;
20124;SDS011;10223;50.862;4.360;2023-09-18T10:42:52;12.98;;;4.05;;
20124;SDS011;10223;50.862;4.360;2023-09-18T10:45:23;8.32;;;3.28;;
20124;SDS011;10223;50.862;4.360;2023-09-18T10:47:51;5.57;;;3.33;;
20124;SDS011;10223;50.862;4.360;2023-09-18T10:50:28;9.65;;;3.50;;
20124;SDS011;10223;50.862;4.360;2023-09-18T10:52:56;8.55;;;3.65;;
20124;SDS011;10223;50.862;4.360;2023-09-18T10:55:24;11.02;;;3.90;;
20124;SDS011;10223;50.862;4.360;2023-09-18T10:57:53;13.75;;;3.22;;
20124;SDS011;10223;50.862;4.360;2023-09-18T11:00:21;11.18;;;3.40;;
20124;SDS011;10223;50.862;4.360;2023-09-18T11:02:51;9.35;;;3.20;;
20124;SDS011;10223;50.862;4.360;2023-09-18T11:05:28;5.47;;;2.97;;
20124;SDS011;10223;50.862;4.360;2023-09-18T11:10:54;10.13;;;3.90;;
20124;SDS011;10223;50.862;4.360;2023-09-18T11:13:31;18.52;;;2.83;;
20124;SDS011;10223;50.862;4.360;2023-09-18T11:16:02;10.07;;;2.78;;
20124;SDS011;10223;50.862;4.360;2023-09-18T11:18:39;13.32;;;2.97;;
20124;SDS011;10223;50.862;4.360;2023-09-18T11:21:07;6.97;;;2.80;;
20124;SDS011;10223;50.862;4.360;2023-09-18T11:23:35;14.90;;;3.03;;
20124;SDS011;10223;50.862;4.360;2023-09-18T11:26:07;8.23;;;2.45;;
20124;SDS011;10223;50.862;4.360;2023-09-18T11:28:36;13.20;;;2.88;;
20124;SDS011;10223;50.862;4.360;2023-09-18T11:31:04;8.00;;;2.67;;
20124;SDS011;10223;50.862;4.360;2023-09-18T11:33:33;18.85;;;3.30;;
20124;SDS011;10223;50.862;4.360;2023-09-18T11:36:04;26.48;;;3.90;;
20124;SDS011;10223;50.862;4.360;2023-09-18T11:38:33;9.18;;;2.78;;
20124;SDS011;10223;50.862;4.360;2023-09-18T11:43:51;19.33;;;4.55;;
20124;SDS011;10223;50.862;4.360;2023-09-18T11:46:19;20.45;;;3.75;;
20124;SDS011;10223;50.862;4.360;2023-09-18T11:48:47;10.00;;;2.80;;
20124;SDS011;10223;50.862;4.360;2023-09-18T11:51:20;5.95;;;3.03;;
20124;SDS011;10223;50.862;4.360;2023-09-18T11:53:49;3.47;;;2.50;;
20124;SDS011;10223;50.862;4.360;2023-09-18T11:56:20;6.38;;;2.90;;
20124;SDS011;10223;50.862;4.360;2023-09-18T11:58:48;5.70;;;2.45;;
20124;SDS011;10223;50.862;4.360;2023-09-18T12:01:17;5.88;;;2.40;;
20124;SDS011;10223;50.862;4.360;2023-09-18T12:03:45;6.32;;;2.78;;
20124;SDS011;10223;50.862;4.360;2023-09-18T12:06:13;6.82;;;2.72;;
20124;SDS011;10223;50.862;4.360;2023-09-18T12:08:41;4.22;;;2.20;;
20124;SDS011;10223;50.862;4.360;2023-09-18T12:11:08;6.68;;;2.40;;
20124;SDS011;10223;50.862;4.360;2023-09-18T12:13:35;12.82;;;3.45;;
20124;SDS011;10223;50.862;4.360;2023-09-18T12:16:03;7.93;;;2.60;;
20124;SDS011;10223;50.862;4.360;2023-09-18T12:18:32;7.72;;;2.28;;
20124;SDS011;10223;50.862;4.360;2023-09-18T12:21:01;12.55;;;2.60;;
20124;SDS011;10223;50.862;4.360;2023-09-18T12:23:36;9.70;;;2.45;;
20124;SDS011;10223;50.862;4.360;2023-09-18T12:26:04;18.73;;;3.33;;
20124;SDS011;10223;50.862;4.360;2023-09-18T12:28:33;11.57;;;2.50;;
20124;SDS011;10223;50.862;4.360;2023-09-18T12:31:01;6.03;;;2.58;;
20124;SDS011;10223;50.862;4.360;2023-09-18T12:33:30;3.78;;;2.20;;
20124;SDS011;10223;50.862;4.360;2023-09-18T12:36:02;8.52;;;2.47;;
20124;SDS011;10223;50.862;4.360;2023-09-18T12:38:30;7.07;;;2.22;;
20124;SDS011;10223;50.862;4.360;2023-09-18T12:40:57;13.45;;;2.63;;
20124;SDS011;10223;50.862;4.360;2023-09-18T12:43:31;5.93;;;2.15;;
20124;SDS011;10223;50.862;4.360;2023-09-18T12:46:00;15.48;;;2.60;;
20124;SDS011;10223;50.862;4.360;2023-09-18T12:48:28;8.55;;;1.98;;
20124;SDS011;10223;50.862;4.360;2023-09-18T12:50:56;9.40;;;3.22;;
20124;SDS011;10223;50.862;4.360;2023-09-18T12:53:29;7.03;;;1.98;;
20124;SDS011;10223;50.862;4.360;2023-09-18T12:56:04;7.70;;;2.03;;
20124;SDS011;10223;50.862;4.360;2023-09-18T12:58:32;6.20;;;2.05;;
20124;SDS011;10223;50.862;4.360;2023-09-18T13:01:03;8.20;;;2.30;;
20124;SDS011;10223;50.862;4.360;2023-09-18T13:03:33;5.90;;;1.70;;
20124;SDS011;10223;50.862;4.360;2023-09-18T13:06:18;7.53;;;1.75;;
20124;SDS011;10223;50.862;4.360;2023-09-18T13:08:45;11.15;;;2.08;;
20124;SDS011;10223;50.862;4.360;2023-09-18T13:11:13;3.20;;;1.40;;
20124;SDS011;10223;50.862;4.360;2023-09-18T13:13:41;8.38;;;2.10;;
20124;SDS011;10223;50.862;4.360;2023-09-18T13:16:09;3.97;;;1.85;;
20124;SDS011;10223;50.862;4.360;2023-09-18T13:18:37;2.92;;;1.58;;
20124;SDS011;10223;50.862;4.360;2023-09-18T13:21:09;15.48;;;3.00;;
20124;SDS011;10223;50.862;4.360;2023-09-18T13:23:38;4.88;;;2.10;;
20124;SDS011;10223;50.862;4.360;2023-09-18T13:26:05;9.48;;;1.98;;
20124;SDS011;10223;50.862;4.360;2023-09-18T13:28:33;11.18;;;1.95;;
20124;SDS011;10223;50.862;4.360;2023-09-18T13:31:01;5.47;;;1.90;;
20124;SDS011;10223;50.862;4.360;2023-09-18T13:33:30;5.90;;;1.67;;
20124;SDS011;10223;50.862;4.360;2023-09-18T13:35:57;4.00;;;1.40;;
20124;SDS011;10223;50.862;4.360;2023-09-18T13:38:25;3.88;;;1.88;;
20124;SDS011;10223;50.862;4.360;2023-09-18T13:40:54;4.00;;;1.95;;
20124;SDS011;10223;50.862;4.360;2023-09-18T13:43:21;9.23;;;2.08;;
20124;SDS011;10223;50.862;4.360;2023-09-18T13:45:48;12.55;;;2.15;;
20124;SDS011;10223;50.862;4.360;2023-09-18T13:48:16;6.25;;;2.20;;
20124;SDS011;10223;50.862;4.360;2023-09-18T13:50:44;7.63;;;1.85;;
20124;SDS011;10223;50.862;4.360;2023-09-18T13:53:11;10.65;;;2.42;;
20124;SDS011;10223;50.862;4.360;2023-09-18T13:55:38;10.45;;;1.95;;
20124;SDS011;10223;50.862;4.360;2023-09-18T13:58:07;12.82;;;2.28;;
20124;SDS011;10223;50.862;4.360;2023-09-18T14:00:34;9.25;;;1.83;;
20124;SDS011;10223;50.862;4.360;2023-09-18T14:03:02;6.95;;;1.90;;
20124;SDS011;10223;50.862;4.360;2023-09-18T14:05:29;12.88;;;1.60;;
20124;SDS011;10223;50.862;4.360;2023-09-18T14:07:58;8.00;;;1.70;;
20124;SDS011;10223;50.862;4.360;2023-09-18T14:10:26;6.20;;;1.63;;
20124;SDS011;10223;50.862;4.360;2023-09-18T14:12:53;5.53;;;1.70;;
20124;SDS011;10223;50.862;4.360;2023-09-18T14:15:21;4.55;;;1.80;;
20124;SDS011;10223;50.862;4.360;2023-09-18T14:17:48;3.95;;;1.63;;
20124;SDS011;10223;50.862;4.360;2023-09-18T14:20:15;4.05;;;1.90;;
20124;SDS011;10223;50.862;4.360;2023-09-18T14:22:43;6.00;;;1.55;;
20124;SDS011;10223;50.862;4.360;2023-09-18T14:25:11;10.00;;;2.05;;
20124;SDS011;10223;50.862;4.360;2023-09-18T14:27:38;4.07;;;1.95;;
20124;SDS011;10223;50.862;4.360;2023-09-18T14:30:06;8.20;;;2.10;;
20124;SDS011;10223;50.862;4.360;2023-09-18T14:32:36;12.55;;;2.60;;
20124;SDS011;10223;50.862;4.360;2023-09-18T14:35:03;7.70;;;2.17;;
20124;SDS011;10223;50.862;4.360;2023-09-18T14:37:33;6.47;;;2.60;;
20124;SDS011;10223;50.862;4.360;2023-09-18T14:40:01;11.02;;;2.95;;
20124;SDS011;10223;50.862;4.360;2023-09-18T14:42:28;11.73;;;2.53;;
20124;SDS011;10223;50.862;4.360;2023-09-18T14:44:55;13.68;;;2.75;;
20124;SDS011;10223;50.862;4.360;2023-09-18T14:47:22;14.65;;;2.30;;
20124;SDS011;10223;50.862;4.360;2023-09-18T14:49:50;5.75;;;2.30;;
20124;SDS011;10223;50.862;4.360;2023-09-18T14:52:17;5.45;;;2.60;;
20124;SDS011;10223;50.862;4.360;2023-09-18T14:54:46;8.25;;;1.90;;